createdAt,value
2018-03-29T00:00:25.778Z,8.00
2018-03-29T00:02:54.102Z,8.00
2018-03-29T00:05:21.636Z,8.00
2018-03-29T00:07:49.193Z,7.90
2018-03-29T00:10:16.720Z,7.90
2018-03-29T00:12:45.005Z,7.90
2018-03-29T00:15:13.296Z,7.90
2018-03-29T00:17:40.806Z,7.90
2018-03-29T00:20:08.354Z,7.90
2018-03-29T00:22:35.890Z,8.00
2018-03-29T00:25:03.433Z,8.10
2018-03-29T00:27:30.953Z,8.00
2018-03-29T00:29:58.512Z,8.00
2018-03-29T00:32:26.032Z,8.00
2018-03-29T00:34:53.575Z,8.00
2018-03-29T00:37:21.103Z,8.00
2018-03-29T00:39:49.419Z,8.00
2018-03-29T00:42:16.937Z,8.00
2018-03-29T00:44:45.246Z,8.00
2018-03-29T00:47:12.774Z,7.90
2018-03-29T00:49:40.314Z,7.90
2018-03-29T00:52:07.837Z,7.90
2018-03-29T00:54:35.388Z,7.80
2018-03-29T00:57:02.910Z,7.90
2018-03-29T00:59:31.215Z,7.90
2018-03-29T01:01:58.738Z,7.90
2018-03-29T01:04:27.054Z,7.90
2018-03-29T01:06:54.573Z,7.90
2018-03-29T01:09:22.117Z,7.90
2018-03-29T01:11:49.640Z,7.80
2018-03-29T01:14:17.201Z,7.80
2018-03-29T01:16:44.723Z,7.80
2018-03-29T01:19:12.252Z,7.80
2018-03-29T01:21:39.777Z,7.80
2018-03-29T01:24:07.498Z,7.80
2018-03-29T01:26:35.025Z,7.80
2018-03-29T01:29:02.567Z,7.80
2018-03-29T01:31:30.094Z,7.80
2018-03-29T01:33:57.640Z,7.80
2018-03-29T01:36:25.174Z,7.70
2018-03-29T01:38:53.452Z,7.60
2018-03-29T01:41:21.754Z,7.60
2018-03-29T01:43:49.278Z,7.60
2018-03-29T01:46:17.593Z,7.60
2018-03-29T01:48:45.113Z,7.60
2018-03-29T01:51:13.417Z,7.50
2018-03-29T01:53:40.936Z,7.50
2018-03-29T01:56:09.250Z,7.30
2018-03-29T01:58:36.778Z,7.30
2018-03-29T02:01:05.082Z,7.10
2018-03-29T02:03:32.602Z,7.10
2018-03-29T02:06:00.150Z,7.00
2018-03-29T02:08:27.722Z,6.90
2018-03-29T02:10:55.261Z,6.80
2018-03-29T02:13:22.773Z,6.80
2018-03-29T02:15:50.315Z,6.70
2018-03-29T02:18:17.838Z,6.70
2018-03-29T02:20:45.372Z,6.60
2018-03-29T02:23:12.888Z,6.50
2018-03-29T02:25:41.189Z,6.40
2018-03-29T02:28:08.709Z,6.40
2018-03-29T02:30:37.012Z,6.30
2018-03-29T02:36:05.269Z,6.20
2018-03-29T02:38:32.795Z,6.30
2018-03-29T02:41:00.330Z,6.20
2018-03-29T02:43:28.669Z,6.10
2018-03-29T02:45:56.202Z,6.10
2018-03-29T02:48:23.714Z,6.10
2018-03-29T02:50:51.264Z,6.00
2018-03-29T02:53:19.544Z,6.00
2018-03-29T02:55:47.098Z,6.00
2018-03-29T02:58:15.380Z,5.90
2018-03-29T03:00:42.920Z,5.90
2018-03-29T03:03:11.209Z,5.80
2018-03-29T03:05:39.507Z,5.70
2018-03-29T03:08:07.026Z,5.70
2018-03-29T03:10:35.332Z,5.60
2018-03-29T03:13:02.866Z,5.50
2018-03-29T03:15:31.185Z,5.30
2018-03-29T03:17:58.700Z,5.30
2018-03-29T03:20:27.004Z,5.20
2018-03-29T03:22:54.520Z,5.20
2018-03-29T03:25:22.066Z,5.20
2018-03-29T03:27:49.588Z,5.10
2018-03-29T03:30:17.165Z,5.00
2018-03-29T03:32:44.685Z,4.90
2018-03-29T03:35:12.233Z,4.80
2018-03-29T03:37:40.520Z,4.70
2018-03-29T03:40:08.062Z,4.60
2018-03-29T03:42:36.356Z,4.60
2018-03-29T03:45:03.902Z,4.60
2018-03-29T03:47:32.190Z,4.40
2018-03-29T03:49:59.733Z,4.30
2018-03-29T03:52:28.010Z,4.30
2018-03-29T03:54:56.314Z,4.30
2018-03-29T03:57:23.833Z,4.30
2018-03-29T03:59:52.140Z,4.30
2018-03-29T04:02:19.667Z,4.30
2018-03-29T04:04:47.961Z,4.30
2018-03-29T04:07:16.261Z,4.20
2018-03-29T04:09:43.790Z,4.10
2018-03-29T04:12:12.090Z,4.10
2018-03-29T04:14:39.616Z,4.10
2018-03-29T04:17:07.926Z,4.10
2018-03-29T04:19:35.445Z,4.00
2018-03-29T04:22:03.750Z,3.90
2018-03-29T04:24:31.270Z,3.90
2018-03-29T04:26:59.581Z,3.90
2018-03-29T04:29:27.119Z,3.80
2018-03-29T04:31:55.440Z,3.70
2018-03-29T04:34:22.966Z,3.70
2018-03-29T04:36:50.517Z,3.70
2018-03-29T04:39:18.806Z,3.40
2018-03-29T04:41:46.362Z,3.40
2018-03-29T04:44:13.886Z,3.40
2018-03-29T04:46:41.429Z,3.40
2018-03-29T04:49:08.979Z,3.30
2018-03-29T04:51:36.493Z,3.30
2018-03-29T04:54:04.037Z,3.30
2018-03-29T04:56:32.350Z,3.20
2018-03-29T04:58:59.867Z,3.20
2018-03-29T05:01:28.168Z,3.20
2018-03-29T05:03:55.703Z,3.20
2018-03-29T05:06:24.019Z,3.20
2018-03-29T05:08:51.547Z,3.20
2018-03-29T05:11:19.849Z,3.00
2018-03-29T05:13:47.371Z,3.00
2018-03-29T05:16:15.672Z,3.10
2018-03-29T05:18:43.210Z,3.10
2018-03-29T05:21:10.750Z,3.00
2018-03-29T05:23:38.261Z,3.00
2018-03-29T05:26:06.728Z,3.10
2018-03-29T05:28:34.250Z,3.10
2018-03-29T05:31:01.816Z,3.10
2018-03-29T05:33:29.346Z,3.10
2018-03-29T05:35:56.889Z,3.10
2018-03-29T05:38:24.415Z,3.10
2018-03-29T05:40:52.018Z,3.10
2018-03-29T05:43:19.478Z,3.10
2018-03-29T05:45:47.022Z,3.10
2018-03-29T05:48:14.545Z,3.20
2018-03-29T05:50:42.085Z,3.20
2018-03-29T05:53:10.365Z,3.30
2018-03-29T05:55:38.671Z,3.30
2018-03-29T05:58:06.194Z,3.30
2018-03-29T06:00:34.504Z,3.50
2018-03-29T06:03:05.128Z,3.50
2018-03-29T06:05:33.408Z,3.50
2018-03-29T06:08:00.950Z,3.50
2018-03-29T06:10:28.486Z,3.50
2018-03-29T06:12:56.798Z,3.70
2018-03-29T06:15:24.317Z,3.60
2018-03-29T06:17:57.563Z,3.80
2018-03-29T06:20:25.088Z,4.20
2018-03-29T06:22:53.394Z,5.70
2018-03-29T06:25:20.911Z,5.70
2018-03-29T06:27:49.237Z,6.50
2018-03-29T06:30:16.759Z,6.50
2018-03-29T06:32:44.301Z,6.50
2018-03-29T06:35:12.602Z,6.10
2018-03-29T06:37:40.146Z,6.10
2018-03-29T06:40:08.442Z,6.80
2018-03-29T06:42:35.980Z,6.80
2018-03-29T06:45:04.262Z,7.00
2018-03-29T06:47:31.810Z,7.00
2018-03-29T06:50:00.115Z,7.60
2018-03-29T06:52:27.665Z,7.60
2018-03-29T06:54:55.194Z,7.80
2018-03-29T06:57:23.496Z,8.40
2018-03-29T06:59:51.030Z,8.40
2018-03-29T07:02:19.347Z,8.00
2018-03-29T07:04:46.910Z,8.00
2018-03-29T07:07:14.456Z,8.50
2018-03-29T07:09:41.982Z,9.00
2018-03-29T07:12:10.278Z,9.40
2018-03-29T07:14:37.813Z,9.30
2018-03-29T07:17:06.113Z,9.70
2018-03-29T07:19:33.650Z,9.70
2018-03-29T07:22:01.949Z,9.80
2018-03-29T07:24:29.480Z,9.80
2018-03-29T07:26:57.024Z,9.50
2018-03-29T07:29:24.548Z,9.50
2018-03-29T07:31:52.087Z,10.10
2018-03-29T07:34:19.600Z,9.60
2018-03-29T07:36:47.141Z,9.30
2018-03-29T07:39:14.668Z,8.90
2018-03-29T07:41:42.212Z,8.70
2018-03-29T07:44:09.778Z,8.70
2018-03-29T07:46:38.057Z,8.20
2018-03-29T07:49:05.573Z,8.20
2018-03-29T07:51:33.885Z,7.90
2018-03-29T07:54:01.411Z,7.90
2018-03-29T07:56:29.721Z,8.20
2018-03-29T07:58:57.252Z,8.20
2018-03-29T08:01:25.564Z,8.30
2018-03-29T08:03:53.094Z,8.20
2018-03-29T08:06:21.394Z,10.10
2018-03-29T08:08:48.950Z,10.00
2018-03-29T08:11:16.482Z,10.10
2018-03-29T08:13:44.818Z,11.50
2018-03-29T08:16:12.344Z,11.50
2018-03-29T08:18:39.891Z,12.00
2018-03-29T08:21:07.440Z,12.50
2018-03-29T08:23:34.991Z,11.90
2018-03-29T08:26:03.282Z,11.90
2018-03-29T08:28:30.829Z,11.90
2018-03-29T08:30:59.122Z,11.30
2018-03-29T08:33:26.674Z,11.30
2018-03-29T08:35:54.210Z,10.70
2018-03-29T08:38:22.527Z,10.10
2018-03-29T08:40:50.057Z,10.10
2018-03-29T08:43:17.637Z,10.40
2018-03-29T08:45:45.161Z,10.50
2018-03-29T08:48:12.708Z,10.00
2018-03-29T08:50:40.232Z,9.90
2018-03-29T08:53:07.774Z,9.70
2018-03-29T08:55:35.289Z,9.80
2018-03-29T08:58:02.829Z,9.20
2018-03-29T09:00:30.350Z,9.10
2018-03-29T09:02:57.903Z,8.70
2018-03-29T09:05:25.438Z,8.60
2018-03-29T09:07:53.728Z,8.20
2018-03-29T09:10:21.246Z,8.20
2018-03-29T09:12:48.781Z,8.50
2018-03-29T09:15:16.307Z,8.90
2018-03-29T09:17:43.847Z,9.10
2018-03-29T09:20:12.132Z,8.70
2018-03-29T09:22:40.445Z,8.60
2018-03-29T09:25:07.961Z,8.60
2018-03-29T09:27:35.496Z,9.20
2018-03-29T09:30:03.009Z,9.40
2018-03-29T09:32:30.560Z,9.50
2018-03-29T09:34:58.070Z,9.50
2018-03-29T09:37:25.631Z,9.70
2018-03-29T09:39:53.149Z,10.40
2018-03-29T09:42:20.702Z,11.00
2018-03-29T09:44:48.232Z,11.80
2018-03-29T09:47:15.785Z,12.30
2018-03-29T09:49:44.074Z,12.60
2018-03-29T09:52:11.626Z,12.50
2018-03-29T09:54:39.154Z,12.40
2018-03-29T09:57:06.684Z,12.50
2018-03-29T09:59:34.214Z,12.40
2018-03-29T10:02:07.362Z,12.40
2018-03-29T10:04:35.361Z,12.80
2018-03-29T10:07:02.896Z,13.50
2018-03-29T10:09:31.211Z,12.90
2018-03-29T10:11:58.752Z,12.90
2018-03-29T10:14:26.297Z,13.00
2018-03-29T10:16:54.588Z,11.80
2018-03-29T10:19:22.130Z,11.80
2018-03-29T10:21:50.428Z,11.60
2018-03-29T10:24:17.966Z,11.60
2018-03-29T10:26:46.261Z,11.40
2018-03-29T10:29:13.814Z,11.40
2018-03-29T10:31:41.347Z,11.50
2018-03-29T10:34:08.885Z,12.20
2018-03-29T10:36:36.419Z,13.20
2018-03-29T10:39:03.982Z,14.10
2018-03-29T10:41:31.514Z,15.20
2018-03-29T10:43:59.062Z,14.30
2018-03-29T10:46:26.594Z,15.30
2018-03-29T10:48:54.132Z,15.60
2018-03-29T10:51:21.656Z,15.80
2018-03-29T10:53:49.247Z,15.50
2018-03-29T10:56:16.773Z,14.20
2018-03-29T10:58:44.321Z,14.30
2018-03-29T11:01:11.851Z,15.20
2018-03-29T11:03:40.169Z,15.00
2018-03-29T11:06:07.702Z,15.10
2018-03-29T11:08:35.243Z,16.40
2018-03-29T11:11:03.540Z,17.40
2018-03-29T11:13:31.087Z,17.40
2018-03-29T11:15:58.647Z,17.80
2018-03-29T11:18:26.963Z,18.70
2018-03-29T11:20:54.502Z,18.70
2018-03-29T11:23:22.063Z,20.20
2018-03-29T11:25:49.591Z,20.20
2018-03-29T11:28:17.153Z,19.70
2018-03-29T11:30:45.454Z,18.90
2018-03-29T11:33:13.017Z,18.90
2018-03-29T11:35:40.546Z,19.60
2018-03-29T11:38:08.869Z,20.80
2018-03-29T11:40:36.410Z,20.80
2018-03-29T11:43:03.962Z,19.20
2018-03-29T11:45:31.487Z,18.60
2018-03-29T11:47:59.797Z,17.10
2018-03-29T11:50:27.320Z,17.10
2018-03-29T11:52:54.904Z,18.50
2018-03-29T11:55:23.201Z,18.90
2018-03-29T11:57:51.488Z,18.20
2018-03-29T12:00:19.044Z,18.20
2018-03-29T12:02:46.570Z,19.00
2018-03-29T12:05:14.126Z,19.70
2018-03-29T12:07:42.427Z,20.30
2018-03-29T12:10:09.981Z,20.20
2018-03-29T12:12:37.509Z,19.00
2018-03-29T12:15:05.827Z,19.60
2018-03-29T12:17:33.370Z,19.60
2018-03-29T12:20:11.357Z,20.30
2018-03-29T12:22:38.880Z,19.70
2018-03-29T12:25:06.426Z,17.30
2018-03-29T12:27:33.956Z,18.40
2018-03-29T12:30:01.505Z,19.40
2018-03-29T12:32:29.028Z,19.80
2018-03-29T12:34:57.341Z,19.00
2018-03-29T12:37:24.864Z,19.00
2018-03-29T12:39:53.258Z,20.20
2018-03-29T12:42:20.804Z,20.10
2018-03-29T12:44:49.180Z,17.90
2018-03-29T12:47:16.689Z,17.80
2018-03-29T12:49:44.238Z,18.80
2018-03-29T12:52:11.813Z,18.70
2018-03-29T12:54:51.237Z,17.80
2018-03-29T12:57:30.626Z,18.10
2018-03-29T12:59:58.937Z,17.80
2018-03-29T13:02:26.470Z,17.70
2018-03-29T13:04:54.014Z,17.30
2018-03-29T13:07:21.538Z,16.70
2018-03-29T13:09:49.094Z,15.60
2018-03-29T13:12:16.613Z,15.10
2018-03-29T13:14:44.913Z,14.60
2018-03-29T13:17:12.426Z,14.60
2018-03-29T13:19:40.744Z,14.10
2018-03-29T13:22:08.286Z,14.10
2018-03-29T13:24:35.859Z,14.40
2018-03-29T13:27:03.431Z,14.70
2018-03-29T13:29:31.001Z,15.50
2018-03-29T13:31:58.525Z,16.90
2018-03-29T13:34:26.079Z,16.30
2018-03-29T13:36:53.604Z,15.20
2018-03-29T13:39:21.149Z,15.40
2018-03-29T13:41:48.669Z,14.80
2018-03-29T13:44:16.247Z,14.50
2018-03-29T13:46:44.067Z,14.70
2018-03-29T13:49:11.633Z,14.70
2018-03-29T13:51:39.224Z,14.90
2018-03-29T13:54:06.780Z,15.00
2018-03-29T13:56:34.302Z,14.40
2018-03-29T13:59:01.866Z,15.20
2018-03-29T14:01:29.402Z,15.30
2018-03-29T14:03:57.731Z,15.50
2018-03-29T14:06:25.262Z,15.40
2018-03-29T14:08:52.796Z,15.20
2018-03-29T14:11:20.322Z,15.00
2018-03-29T14:13:47.892Z,14.70
2018-03-29T14:16:15.424Z,14.90
2018-03-29T14:18:42.950Z,15.00
2018-03-29T14:21:10.492Z,14.80
2018-03-29T14:23:38.798Z,14.00
2018-03-29T14:26:06.352Z,14.00
2018-03-29T14:28:33.871Z,14.00
2018-03-29T14:31:01.409Z,14.00
2018-03-29T14:33:28.970Z,13.60
2018-03-29T14:35:56.767Z,13.40
2018-03-29T14:38:24.451Z,13.50
2018-03-29T14:40:52.082Z,13.70
2018-03-29T14:43:20.577Z,14.00
2018-03-29T14:45:48.221Z,13.60
2018-03-29T14:48:16.622Z,12.70
2018-03-29T14:50:44.257Z,12.60
2018-03-29T14:53:12.561Z,12.10
2018-03-29T14:55:40.212Z,12.00
2018-03-29T14:58:08.018Z,11.30
2018-03-29T15:00:35.690Z,11.10
2018-03-29T15:03:04.491Z,11.70
2018-03-29T15:05:32.103Z,12.10
2018-03-29T15:07:59.642Z,12.30
2018-03-29T15:10:27.258Z,12.20
2018-03-29T15:12:54.795Z,12.10
2018-03-29T15:15:23.850Z,11.90
2018-03-29T15:17:52.428Z,11.60
2018-03-29T15:20:20.748Z,11.30
2018-03-29T15:22:48.285Z,11.30
2018-03-29T15:25:15.843Z,11.20
2018-03-29T15:27:43.378Z,11.20
2018-03-29T15:30:11.735Z,11.20
2018-03-29T15:32:40.081Z,10.80
2018-03-29T15:35:07.702Z,10.80
2018-03-29T15:37:35.251Z,10.70
2018-03-29T15:40:03.577Z,10.50
2018-03-29T15:42:31.187Z,10.40
2018-03-29T15:44:59.530Z,10.00
2018-03-29T15:47:27.219Z,10.00
2018-03-29T15:49:55.553Z,10.10
2018-03-29T15:52:23.105Z,10.10
2018-03-29T15:54:50.658Z,10.20
2018-03-29T15:57:18.274Z,10.10
2018-03-29T15:59:45.806Z,10.30
2018-03-29T16:02:13.341Z,10.30
2018-03-29T16:04:40.984Z,10.50
2018-03-29T16:07:08.539Z,10.40
2018-03-29T16:09:36.116Z,10.50
2018-03-29T16:12:03.662Z,10.30
2018-03-29T16:14:31.251Z,10.30
2018-03-29T16:16:58.823Z,10.30
2018-03-29T16:19:26.373Z,10.40
2018-03-29T16:21:53.922Z,10.20
2018-03-29T16:24:21.525Z,10.20
2018-03-29T16:26:49.042Z,10.00
2018-03-29T16:29:16.586Z,10.00
2018-03-29T16:31:44.132Z,9.90
2018-03-29T16:34:11.658Z,9.90
2018-03-29T16:36:39.970Z,9.80
2018-03-29T16:39:07.487Z,9.80
2018-03-29T16:41:35.038Z,9.80
2018-03-29T16:44:02.566Z,9.80
2018-03-29T16:46:30.122Z,9.80
2018-03-29T16:48:57.652Z,9.70
2018-03-29T16:51:25.195Z,9.70
2018-03-29T16:53:53.489Z,9.60
2018-03-29T16:56:21.049Z,9.60
2018-03-29T16:58:48.585Z,9.60
2018-03-29T17:01:16.885Z,9.60
2018-03-29T17:03:44.410Z,9.50
2018-03-29T17:06:12.722Z,9.40
2018-03-29T17:08:40.237Z,9.40
2018-03-29T17:11:07.774Z,9.40
2018-03-29T17:13:35.288Z,9.20
2018-03-29T17:16:02.832Z,9.10
2018-03-29T17:18:31.134Z,8.80
2018-03-29T17:20:58.680Z,8.80
2018-03-29T17:23:26.246Z,8.70
2018-03-29T17:25:53.801Z,8.60
2018-03-29T17:28:21.337Z,8.50
2018-03-29T17:30:49.672Z,8.10
2018-03-29T17:33:17.198Z,8.10
2018-03-29T17:35:44.747Z,8.00
2018-03-29T17:38:12.272Z,7.80
2018-03-29T17:40:39.814Z,7.60
2018-03-29T17:43:07.329Z,7.50
2018-03-29T17:45:34.877Z,7.30
2018-03-29T17:48:02.410Z,7.20
2018-03-29T17:50:30.745Z,7.00
2018-03-29T17:52:58.270Z,6.90
2018-03-29T17:55:25.824Z,6.80
2018-03-29T17:57:54.107Z,6.70
2018-03-29T18:00:21.649Z,6.60
2018-03-29T18:02:49.186Z,6.60
2018-03-29T18:05:16.741Z,6.50
2018-03-29T18:07:44.261Z,6.40
2018-03-29T18:10:11.777Z,6.30
2018-03-29T18:12:40.089Z,6.20
2018-03-29T18:15:07.621Z,6.20
2018-03-29T18:17:35.931Z,6.10
2018-03-29T18:20:03.449Z,6.10
2018-03-29T18:22:31.748Z,6.00
2018-03-29T18:24:59.274Z,6.00
2018-03-29T18:27:26.826Z,6.00
2018-03-29T18:29:54.356Z,6.00
2018-03-29T18:32:21.889Z,5.90
2018-03-29T18:34:49.405Z,5.90
2018-03-29T18:37:16.960Z,5.90
2018-03-29T18:39:44.497Z,5.90
2018-03-29T18:42:12.040Z,5.90
2018-03-29T18:44:39.553Z,5.90
2018-03-29T18:47:07.865Z,5.90
2018-03-29T18:49:35.401Z,5.90
2018-03-29T18:52:02.954Z,5.90
2018-03-29T18:54:30.811Z,5.90
2018-03-29T18:56:58.558Z,5.90
2018-03-29T18:59:26.176Z,5.90
2018-03-29T19:01:53.834Z,5.90
2018-03-29T19:04:21.566Z,5.90
2018-03-29T19:06:49.337Z,5.90
2018-03-29T19:09:16.961Z,5.90
2018-03-29T19:11:44.650Z,5.90
2018-03-29T19:14:12.410Z,5.90
2018-03-29T19:16:40.112Z,5.80
2018-03-29T19:19:07.803Z,5.70
2018-03-29T19:21:35.383Z,5.70
2018-03-29T19:24:03.732Z,5.80
2018-03-29T19:26:31.615Z,5.80
2018-03-29T19:28:59.275Z,5.80
2018-03-29T19:31:27.736Z,6.00
2018-03-29T19:33:55.447Z,6.00
2018-03-29T19:36:23.107Z,6.00
2018-03-29T19:38:50.695Z,6.10
2018-03-29T19:41:18.367Z,6.30
2018-03-29T19:43:46.018Z,6.40
2018-03-29T19:46:13.638Z,6.50
2018-03-29T19:48:41.206Z,6.60
2018-03-29T19:51:09.062Z,6.60
2018-03-29T19:53:36.814Z,6.60
2018-03-29T19:56:05.138Z,6.60
2018-03-29T19:58:32.689Z,6.60
2018-03-29T20:01:00.246Z,6.60
2018-03-29T20:03:27.802Z,6.60
2018-03-29T20:05:55.343Z,6.60
2018-03-29T20:08:22.900Z,6.60
2018-03-29T20:10:51.209Z,6.50
2018-03-29T20:13:18.756Z,6.50
2018-03-29T20:15:46.275Z,6.50
2018-03-29T20:18:13.834Z,6.50
2018-03-29T20:20:42.133Z,6.40
2018-03-29T20:23:09.691Z,6.40
2018-03-29T20:25:37.218Z,6.40
2018-03-29T20:28:04.776Z,6.40
2018-03-29T20:30:32.307Z,6.40
2018-03-29T20:32:59.849Z,6.30
2018-03-29T20:35:27.384Z,6.20
2018-03-29T20:37:54.930Z,6.20
2018-03-29T20:40:23.236Z,6.20
2018-03-29T20:42:50.807Z,6.10
2018-03-29T20:45:18.340Z,6.00
2018-03-29T20:47:45.881Z,5.90
2018-03-29T20:50:14.188Z,5.90
2018-03-29T20:52:41.738Z,5.90
2018-03-29T20:55:09.274Z,5.90
2018-03-29T20:57:37.816Z,5.80
2018-03-29T21:00:05.347Z,5.80
2018-03-29T21:02:32.920Z,5.70
2018-03-29T21:05:00.452Z,5.60
2018-03-29T21:07:28.021Z,5.60
2018-03-29T21:09:55.560Z,5.50
2018-03-29T21:12:23.131Z,5.40
2018-03-29T21:14:50.665Z,5.30
2018-03-29T21:17:18.230Z,5.20
2018-03-29T21:19:46.542Z,5.20
2018-03-29T21:22:14.111Z,5.20
2018-03-29T21:24:41.641Z,5.10
2018-03-29T21:27:09.187Z,5.00
2018-03-29T21:29:36.717Z,5.00
2018-03-29T21:32:04.307Z,4.90
2018-03-29T21:34:31.867Z,5.00
2018-03-29T21:36:59.433Z,4.90
2018-03-29T21:39:26.956Z,4.80
2018-03-29T21:41:54.508Z,4.70
2018-03-29T21:44:22.052Z,4.60
2018-03-29T21:46:49.616Z,4.50
2018-03-29T21:49:17.142Z,4.40
2018-03-29T21:51:44.696Z,4.30
2018-03-29T21:54:12.235Z,4.20
2018-03-29T21:56:39.792Z,4.20
2018-03-29T21:59:07.338Z,4.00
2018-03-29T22:01:35.662Z,3.90
2018-03-29T22:04:03.249Z,3.90
2018-03-29T22:06:30.801Z,3.80
2018-03-29T22:08:58.362Z,3.70
2018-03-29T22:11:25.882Z,3.70
2018-03-29T22:13:54.189Z,3.50
2018-03-29T22:16:21.716Z,3.50
2018-03-29T22:18:49.266Z,3.60
2018-03-29T22:21:16.801Z,3.70
2018-03-29T22:23:45.134Z,3.70
2018-03-29T22:26:12.661Z,3.70
2018-03-29T22:28:40.220Z,3.70
2018-03-29T22:31:07.740Z,3.60
2018-03-29T22:33:36.049Z,3.50
2018-03-29T22:36:03.570Z,3.50
2018-03-29T22:38:31.116Z,3.40
2018-03-29T22:40:58.658Z,3.30
2018-03-29T22:43:26.196Z,3.20
2018-03-29T22:45:53.734Z,3.20
2018-03-29T22:48:21.285Z,3.10
2018-03-29T22:50:48.823Z,3.00
2018-03-29T22:53:16.381Z,2.90
2018-03-29T22:55:44.665Z,2.70
2018-03-29T22:58:12.978Z,2.70
2018-03-29T23:00:40.510Z,2.60
2018-03-29T23:03:08.825Z,2.50
2018-03-29T23:05:36.357Z,2.50
2018-03-29T23:08:03.952Z,2.50
2018-03-29T23:10:31.469Z,2.40
2018-03-29T23:12:59.008Z,2.40
2018-03-29T23:15:27.305Z,2.20
2018-03-29T23:17:54.839Z,2.20
2018-03-29T23:20:23.171Z,2.10
2018-03-29T23:22:50.688Z,2.00
2018-03-29T23:25:18.204Z,2.00
2018-03-29T23:27:45.748Z,1.90
2018-03-29T23:30:13.303Z,1.90
2018-03-29T23:32:40.836Z,1.80
2018-03-29T23:35:08.356Z,1.80
2018-03-29T23:37:36.665Z,1.70
2018-03-29T23:40:04.183Z,1.70
2018-03-29T23:42:31.722Z,1.70
2018-03-29T23:44:59.253Z,1.60
2018-03-29T23:47:26.788Z,1.60
2018-03-29T23:49:55.077Z,1.50
2018-03-29T23:52:22.596Z,1.50
2018-03-29T23:54:50.908Z,1.40
2018-03-29T23:57:19.232Z,1.40
2018-03-29T23:59:46.778Z,1.50
